20°C Temp
17°C Dewpoint
83% Humidity
Temperature
21 KM/H
13 MPH
11 KTS
100°
Due East

Wind Speed
Clear
Conditions
Pressure 1014.92 (hPa) - 29.97 (in)
Visibility 6.2 (mi) - 10.0 (km)

Current Conditions
EKCH
Location 55(km)
Metar :EKCH 242220Z 10011KT CAVOK 20/17 Q1015 NOSIG
Sun 25th July 00:20 am

Airport
  Metar Aviation API Data Provided by https://www.checkwx.com/ PHP scripts by weather34.com ©2021